METAR Data
IDs: Format: Raw Decoded Include TAF

Data at: 1334 UTC 14 Dec 2019

PAMR 141253Z 04003KT 10SM BKN110 M02/M07 A2959 RMK AO2 SLP023 T10221067 $
PAMR 141153Z 00000KT 10SM SCT120 M03/M07 A2960 RMK AO2 SLP025 60000 T10331067 11022 21056 51005
PAMR 141053Z 00000KT 10SM FEW065 SCT090 BKN120 M03/M06 A2960 RMK AO2 UPB22E31 SLP023 P0000 T10331061
PAMR 140953Z 11003KT 10SM OVC075 M03/M07 A2960 RMK AO2 SLP025 T10331067
PAMR 140853Z 00000KT 10SM BKN070 OVC080 M04/M07 A2958 RMK AO2 SLP021 T10391072 410111056 53002
PAMR 140753Z 30003KT 10SM BKN085 OVC130 M04/M08 A2958 RMK AO2 SLP017 T10391078
PAMR 140653Z AUTO 00000KT 10SM SCT085 M05/M09 A2957 RMK AO2 SLP015 T10501089 TSNO
PAMR 140553Z 34004KT 10SM CLR M02/M07 A2958 RMK AO2 SLP017 T10221072 11017 21050 55004
PAMR 140453Z 01004KT 10SM CLR M03/M07 A2958 RMK AO2 SLP017 T10281072
PAMR 140353Z 02006KT 10SM CLR M02/M07 A2957 RMK AO2 SLP017 T10221067
PAMR 140253Z 35006KT 10SM CLR M02/M07 A2959 RMK AO2 SLP022 T10171067 56003
PAMR 140153Z 35004KT 10SM FEW070 M02/M07 A2959 RMK AO2 SLP022 T10221067
PAMR 140053Z 36004KT 10SM FEW070 M02/M06 A2959 RMK AO2 SLP023 T10171061
PAMR 132353Z 33006KT 10SM FEW075 M02/M06 A2960 RMK AO2 SLP025 T10171061 11011 21033 51016
PAMR 132253Z 29003KT 10SM BKN070 M02/M06 A2958 RMK AO2 SLP020 T10221056
PAMR 132153Z 05003KT 10SM BKN070 M02/M06 A2957 RMK AO2 SLP016 T10221056
PAMR 132053Z 00000KT 10SM BKN070 BKN085 M03/M06 A2955 RMK AO2 SLP008 T10281056 51040
PAMR 131953Z VRB03KT 10SM BKN075 OVC090 M02/M05 A2952 RMK AO2 SLP998 T10171050
PAMR 131855Z 00000KT 10SM BKN075 OVC090 M02/M06 A2948 RMK AO2 T10221056
PAMR 131853Z 00000KT 10SM OVC075 M03/M06 A2947 RMK AO2 SLP983 T10281056
PAMR 131753Z 01003KT 10SM BKN075 M02/M06 A2943 RMK AO2 SLP968 T10221056 11011 21039 53026
PAMR 131553Z VRB03KT 10SM FEW020 BKN070 BKN090 M02/M05 A2936 RMK AO2 SLP944 T10171050
PAMR 131453Z 05003KT 10SM OVC070 M02/M05 A2936 RMK AO2 SLP942 T10171050 52024
PAMR 131353Z 36005KT 10SM OVC070 M01/M05 A2933 RMK AO2 SLP934 T10111050
PAMR 131253Z 02004KT 10SM OVC080 M01/M06 A2931 RMK AO2 SLP927 T10111056
PAMR 131153Z 00000KT 10SM FEW070 FEW080 M02/M06 A2928 RMK AO2 SLP918 T10171056 11006 21033 51013
PAMR 131053Z 00000KT 10SM FEW090 M03/M06 A2927 RMK AO2 SLP912 T10281061
PAMR 130953Z 00000KT 10SM CLR M02/M06 A2927 RMK AO2 SLP912 T10171061
PAMR 130853Z 36006KT 10SM BKN075 OVC090 M01/M05 A2925 RMK AO2 SLP905 T10111050 400111067 53012
PAMR 130753Z 00000KT 10SM SCT080 BKN130 OVC200 M02/M05 A2924 RMK AO2 SLP901 T10171050
PAMR 130653Z VRB03KT 10SM OVC080 M01/M06 A2922 RMK AO2 SLP896 T10111056
PAMR 130553Z 36003KT 10SM BKN080 M01/M05 A2921 RMK AO2 SLP893 T10111050 10011 21022 55002
PAMR 130453Z 34006KT 10SM OVC075 M01/M05 A2921 RMK AO2 SLP893 T10111050
PAMR 130353Z 00000KT 10SM BKN080 M02/M05 A2921 RMK AO2 SLP894 T10171050
PAMR 130253Z 00000KT 10SM BKN080 M01/M04 A2922 RMK AO2 SLP895 T10061044 55003
PAMR 130153Z 32003KT 10SM BKN070 OVC120 M01/M04 A2922 RMK AO2 SLP895 T10061039